Time;durP1;ratioP1;P1;durP2;ratioP2;P2;SDS_P1;SDS_P2;PMS_P1;PMS_P2;Temp;Humidity;BMP_temperature;BMP_pressure;BME280_temperature;BME280_humidity;BME280_pressure;Samples;Min_cycle;Max_cycle;Signal;HPM_P1;HPM_P2
2023/04/10 00:01:42;;;;;;;24.63;18.43;;;3.10;44.70;;;;;;5033297;28;20498;-52
2023/04/10 00:04:09;;;;;;;27.70;19.27;;;3.00;43.90;;;;;;5033590;28;20851;-53
2023/04/10 00:06:35;;;;;;;22.17;17.10;;;3.00;44.10;;;;;;5025025;28;20533;-52
2023/04/10 00:09:02;;;;;;;21.57;16.83;;;3.00;42.40;;;;;;5033461;28;20473;-52
2023/04/10 00:11:30;;;;;;;24.17;17.57;;;2.90;43.10;;;;;;5024333;28;20571;-52
2023/04/10 00:13:56;;;;;;;29.43;17.20;;;2.90;43.40;;;;;;5033061;28;20485;-52
2023/04/10 00:16:23;;;;;;;23.90;16.80;;;2.90;43.50;;;;;;5027024;28;20535;-53
2023/04/10 00:18:49;;;;;;;19.03;15.90;;;2.80;42.80;;;;;;5031226;28;20495;-53
2023/04/10 00:21:17;;;;;;;20.20;16.10;;;2.80;42.50;;;;;;5032896;28;20519;-53
2023/04/10 00:23:43;;;;;;;20.50;15.73;;;2.80;42.70;;;;;;5032033;28;20449;-53
2023/04/10 00:26:10;;;;;;;18.60;15.80;;;2.80;43.10;;;;;;5032622;28;20500;-50
2023/04/10 00:28:38;;;;;;;18.40;14.50;;;2.70;44.30;;;;;;5028875;28;20948;-51
2023/04/10 00:31:05;;;;;;;24.27;15.13;;;2.70;46.10;;;;;;5033085;28;20875;-51
2023/04/10 00:33:31;;;;;;;24.13;16.20;;;2.60;47.80;;;;;;5031786;28;20589;-51
2023/04/10 00:35:58;;;;;;;20.77;14.20;;;2.60;48.60;;;;;;5028930;28;20500;-52
2023/04/10 00:38:25;;;;;;;22.20;16.87;;;2.50;50.10;;;;;;5026648;28;20496;-51
2023/04/10 00:40:51;;;;;;;20.60;16.27;;;2.50;51.40;;;;;;5033437;28;20890;-51
2023/04/10 00:43:19;;;;;;;20.23;15.63;;;2.50;51.00;;;;;;5029003;28;20564;-51
2023/04/10 00:45:47;;;;;;;18.37;15.77;;;2.50;50.50;;;;;;5013314;28;21032;-51
2023/04/10 00:48:15;;;;;;;19.87;14.97;;;2.50;50.60;;;;;;5025277;28;20546;-50
2023/04/10 00:50:41;;;;;;;19.93;15.70;;;2.50;53.70;;;;;;5049199;22;20581;-55
2023/04/10 00:53:08;;;;;;;20.10;16.70;;;2.50;53.60;;;;;;5031091;28;20487;-56
2023/04/10 00:55:34;;;;;;;20.57;15.60;;;2.50;50.00;;;;;;5023731;28;20479;-56
2023/04/10 00:58:01;;;;;;;18.80;15.63;;;2.50;49.20;;;;;;5014626;28;20478;-56
2023/04/10 01:00:28;;;;;;;19.07;15.50;;;2.50;47.80;;;;;;5029797;28;20512;-56
2023/04/10 01:02:56;;;;;;;21.40;15.57;;;2.40;49.40;;;;;;5031402;28;20473;-55
2023/04/10 01:05:23;;;;;;;20.00;16.00;;;2.30;49.20;;;;;;5032342;28;20469;-54
2023/04/10 01:07:58;;;;;;;19.43;15.80;;;2.30;50.90;;;;;;5029541;28;20458;-55
2023/04/10 01:10:34;;;;;;;23.70;18.13;;;2.20;53.50;;;;;;5029238;28;20504;-56
2023/04/10 01:13:09;;;;;;;25.27;17.30;;;2.20;54.70;;;;;;5032478;28;20485;-56
2023/04/10 01:15:43;;;;;;;20.67;15.83;;;2.10;55.00;;;;;;5020994;28;20528;-55
2023/04/10 01:18:22;;;;;;;20.13;15.03;;;2.10;55.80;;;;;;5029766;28;20889;-55
2023/04/10 01:20:49;;;;;;;19.50;14.80;;;2.00;53.80;;;;;;5030753;28;21035;-56
2023/04/10 01:23:41;;;;;;;18.10;14.90;;;2.00;55.90;;;;;;5031578;28;20458;-55
2023/04/10 01:26:09;;;;;;;28.30;15.53;;;2.00;55.10;;;;;;5020295;28;20468;-56
2023/04/10 01:28:58;;;;;;;20.80;15.37;;;2.10;52.10;;;;;;5029321;28;20472;-56
2023/04/10 01:31:33;;;;;;;22.70;14.47;;;2.00;54.90;;;;;;5021989;28;20555;-55
2023/04/10 01:34:05;;;;;;;17.37;14.73;;;2.10;54.70;;;;;;5026669;28;21072;-54
2023/04/10 01:36:36;;;;;;;18.07;15.10;;;2.00;60.50;;;;;;5027769;28;20477;-55
2023/04/10 01:39:05;;;;;;;29.83;15.00;;;1.90;61.70;;;;;;5022339;28;20472;-57
2023/04/10 01:41:33;;;;;;;22.23;14.87;;;1.90;62.30;;;;;;5030399;28;20516;-56
2023/04/10 01:44:04;;;;;;;17.30;14.37;;;1.90;62.60;;;;;;5023783;28;20938;-55
2023/04/10 01:46:32;;;;;;;20.47;15.10;;;1.90;59.40;;;;;;5031954;28;20540;-54
2023/04/10 01:49:01;;;;;;;25.60;17.60;;;2.00;59.80;;;;;;5028969;28;20518;-55
2023/04/10 01:51:31;;;;;;;27.40;20.30;;;1.90;67.40;;;;;;5020132;28;20492;-56
2023/04/10 01:53:58;;;;;;;27.40;19.63;;;1.80;67.90;;;;;;5029893;28;20489;-55
2023/04/10 01:56:25;;;;;;;21.60;17.10;;;1.80;67.40;;;;;;5029389;28;21004;-56
2023/04/10 01:58:52;;;;;;;27.50;20.30;;;1.70;67.60;;;;;;5032797;28;20484;-56
2023/04/10 02:01:21;;;;;;;26.17;19.97;;;1.70;67.60;;;;;;5032227;28;20895;-56
2023/04/10 02:03:47;;;;;;;24.87;19.10;;;1.60;67.00;;;;;;5026958;28;20597;-55
2023/04/10 02:06:18;;;;;;;22.00;17.10;;;1.70;64.10;;;;;;5029802;28;20493;-55
2023/04/10 02:08:54;;;;;;;16.63;14.43;;;1.80;58.10;;;;;;5029497;28;20478;-56
2023/04/10 02:11:27;;;;;;;16.37;14.50;;;1.60;60.20;;;;;;5022461;28;20481;-56
2023/04/10 02:13:58;;;;;;;17.43;14.47;;;1.60;57.70;;;;;;5028206;28;20515;-56
2023/04/10 02:16:28;;;;;;;20.90;16.30;;;1.60;56.80;;;;;;5022805;28;21032;-56
2023/04/10 02:18:56;;;;;;;18.77;15.07;;;1.60;56.90;;;;;;5029007;28;20488;-54
2023/04/10 02:21:22;;;;;;;19.60;14.73;;;1.50;58.20;;;;;;5028175;28;20501;-56
2023/04/10 02:23:49;;;;;;;19.13;15.40;;;1.50;59.50;;;;;;5029579;28;20481;-55
2023/04/10 02:26:16;;;;;;;19.07;14.97;;;1.40;60.70;;;;;;5028927;28;20463;-56
2023/04/10 02:28:42;;;;;;;17.60;14.23;;;1.40;61.70;;;;;;5031368;28;20496;-55
2023/04/10 02:31:09;;;;;;;21.10;15.50;;;1.40;62.40;;;;;;5031625;28;20522;-56
2023/04/10 02:33:37;;;;;;;17.33;14.67;;;1.30;63.50;;;;;;5031280;28;20754;-55
2023/04/10 02:36:04;;;;;;;17.63;15.60;;;1.30;62.80;;;;;;5031272;28;20929;-56
2023/04/10 02:38:31;;;;;;;16.47;13.30;;;1.30;63.20;;;;;;5030237;28;20466;-56
2023/04/10 02:40:57;;;;;;;19.83;14.70;;;1.30;62.20;;;;;;5022020;28;20496;-55
2023/04/10 02:43:24;;;;;;;16.83;15.00;;;1.20;62.00;;;;;;5032293;28;20495;-56
2023/04/10 02:45:51;;;;;;;18.43;14.60;;;1.30;61.70;;;;;;5035145;28;20481;-54
2023/04/10 02:48:17;;;;;;;15.70;13.60;;;1.30;59.10;;;;;;5034437;28;20567;-55
2023/04/10 02:50:46;;;;;;;16.33;13.70;;;1.30;58.30;;;;;;5028605;28;20527;-55
2023/04/10 02:53:13;;;;;;;17.20;12.77;;;1.40;54.90;;;;;;5030481;28;20963;-54
2023/04/10 02:55:40;;;;;;;15.80;13.50;;;1.30;59.30;;;;;;5033146;28;20488;-54
2023/04/10 02:58:07;;;;;;;18.20;13.50;;;1.30;62.00;;;;;;5032884;28;20492;-55
2023/04/10 03:00:33;;;;;;;15.60;13.33;;;1.20;63.30;;;;;;5032311;28;20487;-54
2023/04/10 03:03:00;;;;;;;17.00;13.93;;;1.20;62.30;;;;;;5031873;28;20497;-54
2023/04/10 03:05:27;;;;;;;18.33;14.33;;;1.10;63.40;;;;;;5032718;28;20512;-55
2023/04/10 03:07:55;;;;;;;15.60;14.10;;;1.10;63.80;;;;;;5030704;28;20469;-55
2023/04/10 03:10:23;;;;;;;14.77;12.60;;;1.00;65.20;;;;;;5030968;28;20528;-56
2023/04/10 03:12:49;;;;;;;18.53;14.20;;;1.10;60.10;;;;;;5033222;28;20468;-56
2023/04/10 03:15:16;;;;;;;20.40;14.00;;;1.10;65.70;;;;;;5027401;28;20520;-56
2023/04/10 03:17:43;;;;;;;21.13;13.47;;;1.10;64.60;;;;;;5028618;28;20465;-55
2023/04/10 03:20:11;;;;;;;15.73;13.00;;;1.10;62.80;;;;;;5027860;28;20536;-55
2023/04/10 03:22:38;;;;;;;16.10;14.07;;;1.00;63.20;;;;;;5031173;28;20537;-56
2023/04/10 03:25:07;;;;;;;16.20;13.03;;;1.00;62.80;;;;;;5032342;28;21212;-56
2023/04/10 03:27:33;;;;;;;16.00;13.40;;;1.10;58.70;;;;;;5024333;28;20469;-56
2023/04/10 03:30:01;;;;;;;17.30;12.87;;;1.00;59.60;;;;;;5029596;28;20528;-55
2023/04/10 03:32:29;;;;;;;16.00;12.27;;;1.00;59.40;;;;;;5029543;28;20551;-55
2023/04/10 03:34:57;;;;;;;14.37;12.53;;;1.00;60.80;;;;;;5034209;28;20492;-59
2023/04/10 03:37:23;;;;;;;17.67;13.60;;;0.90;62.70;;;;;;5031116;28;20470;-55
2023/04/10 03:39:50;;;;;;;14.93;13.40;;;0.90;62.40;;;;;;5034091;28;20466;-55
2023/04/10 03:42:18;;;;;;;14.87;12.87;;;1.00;61.20;;;;;;5031916;28;20471;-55
2023/04/10 03:44:44;;;;;;;14.87;12.80;;;1.10;58.90;;;;;;5032869;28;21274;-54
2023/04/10 03:47:11;;;;;;;16.97;13.90;;;1.00;62.60;;;;;;5030185;28;21271;-54
2023/04/10 03:49:37;;;;;;;16.20;13.60;;;1.00;63.00;;;;;;5032680;28;20523;-56
2023/04/10 03:52:04;;;;;;;18.20;13.53;;;1.00;62.60;;;;;;5031690;28;20464;-56
2023/04/10 03:54:31;;;;;;;15.73;12.77;;;1.00;62.40;;;;;;5032631;28;20513;-54
2023/04/10 03:56:57;;;;;;;18.30;14.10;;;1.00;63.00;;;;;;5025421;28;20532;-55
2023/04/10 03:59:25;;;;;;;16.20;13.07;;;0.90;62.10;;;;;;5033024;28;20493;-55
2023/04/10 04:01:52;;;;;;;18.60;14.13;;;1.00;62.10;;;;;;5029293;28;20473;-55
2023/04/10 04:04:19;;;;;;;14.03;12.63;;;0.90;61.70;;;;;;5032092;28;20471;-55
2023/04/10 04:06:46;;;;;;;15.00;12.57;;;0.90;61.70;;;;;;5028054;28;20486;-56
2023/04/10 04:09:12;;;;;;;18.97;13.50;;;0.90;60.70;;;;;;5026514;28;21025;-55
2023/04/10 04:11:39;;;;;;;13.93;12.50;;;0.90;62.20;;;;;;5030039;28;21009;-56
2023/04/10 04:14:05;;;;;;;15.90;12.83;;;0.80;64.00;;;;;;5032479;28;20462;-55
2023/04/10 04:16:33;;;;;;;14.53;12.10;;;0.90;62.20;;;;;;5030938;28;20983;-54
2023/04/10 04:19:00;;;;;;;16.53;13.97;;;0.90;61.80;;;;;;5030849;28;20492;-55
2023/04/10 04:21:26;;;;;;;14.87;13.40;;;0.90;62.20;;;;;;5032490;28;20488;-55
2023/04/10 04:23:54;;;;;;;14.10;12.73;;;0.80;63.80;;;;;;5032877;28;20498;-54
2023/04/10 04:26:20;;;;;;;17.30;12.37;;;0.80;64.40;;;;;;5031272;28;20466;-55
2023/04/10 04:28:47;;;;;;;15.93;13.87;;;0.80;63.60;;;;;;5028576;28;20468;-55
2023/04/10 04:31:15;;;;;;;17.47;13.60;;;0.90;63.00;;;;;;5030789;28;20514;-54
2023/04/10 04:33:42;;;;;;;18.60;12.53;;;0.90;64.30;;;;;;5029762;28;20459;-54
2023/04/10 04:36:09;;;;;;;13.80;11.67;;;1.00;62.70;;;;;;5030485;28;20519;-56
2023/04/10 04:38:36;;;;;;;15.50;12.07;;;1.00;64.20;;;;;;5029599;28;20900;-55
2023/04/10 04:41:03;;;;;;;16.27;12.43;;;1.00;65.60;;;;;;5030416;28;20942;-55
2023/04/10 04:43:29;;;;;;;13.70;12.07;;;1.00;65.70;;;;;;5031214;28;20519;-54
2023/04/10 04:45:56;;;;;;;15.30;11.97;;;1.00;65.70;;;;;;5033158;28;20445;-55
2023/04/10 04:48:23;;;;;;;13.47;11.87;;;1.00;67.00;;;;;;5031207;28;20530;-54
2023/04/10 04:50:51;;;;;;;13.67;11.97;;;1.00;68.20;;;;;;5027689;28;20552;-55
2023/04/10 04:53:17;;;;;;;14.10;12.40;;;1.10;67.50;;;;;;5030563;28;20491;-55
2023/04/10 04:55:44;;;;;;;14.90;12.30;;;1.20;66.60;;;;;;5031697;28;20544;-54
2023/04/10 04:58:11;;;;;;;15.27;11.87;;;1.20;66.20;;;;;;5028168;28;20801;-54
2023/04/10 05:00:37;;;;;;;15.83;12.20;;;1.20;69.00;;;;;;5024977;28;21439;-55
2023/04/10 05:03:05;;;;;;;16.43;11.10;;;1.30;71.30;;;;;;5031192;28;20488;-55
2023/04/10 05:05:32;;;;;;;13.43;11.17;;;1.40;70.60;;;;;;5032448;28;20462;-55
2023/04/10 05:08:00;;;;;;;12.20;10.43;;;1.40;70.20;;;;;;5029846;28;20445;-54
2023/04/10 05:10:26;;;;;;;12.33;11.07;;;1.50;71.30;;;;;;5031819;28;21024;-55
2023/04/10 05:12:53;;;;;;;13.67;11.13;;;1.50;70.70;;;;;;5032993;28;20448;-55
2023/04/10 05:15:19;;;;;;;11.73;10.00;;;1.60;73.10;;;;;;5031857;28;21174;-54
2023/04/10 05:17:49;;;;;;;14.40;11.63;;;1.70;72.70;;;;;;5022751;28;20883;-53
2023/04/10 05:20:16;;;;;;;13.40;11.33;;;1.80;70.90;;;;;;5031791;28;20527;-56
2023/04/10 05:22:43;;;;;;;11.60;10.50;;;1.90;72.00;;;;;;5025122;28;20497;-54
2023/04/10 05:25:11;;;;;;;15.43;11.83;;;2.00;71.50;;;;;;5027983;28;20530;-53
2023/04/10 05:27:38;;;;;;;13.23;11.83;;;2.10;71.60;;;;;;5032000;28;20501;-55
2023/04/10 05:30:05;;;;;;;12.60;11.33;;;2.20;71.40;;;;;;5029980;28;20514;-54
2023/04/10 05:32:31;;;;;;;12.73;10.70;;;2.40;70.80;;;;;;5030369;28;20470;-54
2023/04/10 05:34:58;;;;;;;13.70;11.40;;;2.50;70.90;;;;;;5030551;28;20516;-54
2023/04/10 05:37:25;;;;;;;12.67;11.07;;;2.70;71.00;;;;;;5021739;28;20489;-55
2023/04/10 05:39:51;;;;;;;12.20;11.00;;;2.80;75.80;;;;;;5023500;28;20515;-54
2023/04/10 05:42:19;;;;;;;12.50;11.20;;;3.00;74.70;;;;;;5031596;28;20496;-56
2023/04/10 05:44:46;;;;;;;13.00;11.60;;;3.10;73.60;;;;;;5030111;28;20493;-56
2023/04/10 05:47:12;;;;;;;13.47;11.70;;;3.30;71.90;;;;;;5029736;28;20915;-55
2023/04/10 05:49:39;;;;;;;11.83;10.63;;;3.50;71.10;;;;;;5024800;28;20520;-54
2023/04/10 05:52:05;;;;;;;15.77;11.53;;;3.70;76.50;;;;;;5031171;28;20492;-54
2023/04/10 05:54:32;;;;;;;14.10;11.63;;;3.90;78.60;;;;;;5030436;28;20494;-54
2023/04/10 05:56:58;;;;;;;19.23;12.20;;;4.10;79.30;;;;;;5031206;28;20536;-53
2023/04/10 05:59:26;;;;;;;11.23;10.13;;;4.20;82.60;;;;;;5029938;28;20497;-54
2023/04/10 06:01:53;;;;;;;12.73;10.90;;;4.50;76.70;;;;;;5029209;28;20489;-54
2023/04/10 06:04:20;;;;;;;14.87;12.03;;;4.80;71.90;;;;;;5025345;28;20494;-55
2023/04/10 06:06:47;;;;;;;14.30;11.77;;;5.10;69.60;;;;;;5029946;28;20460;-54
2023/04/10 06:09:14;;;;;;;12.60;11.40;;;5.30;76.80;;;;;;5030977;28;20501;-54
2023/04/10 06:11:40;;;;;;;15.60;11.17;;;5.80;76.20;;;;;;5030884;28;20502;-55
2023/04/10 06:14:07;;;;;;;12.07;10.87;;;6.30;83.40;;;;;;5031307;28;20886;-54
2023/04/10 06:16:35;;;;;;;13.37;11.97;;;6.40;99.90;;;;;;5030352;28;20515;-55
2023/04/10 06:19:01;;;;;;;16.83;13.03;;;7.00;99.90;;;;;;5030106;28;20980;-54
2023/04/10 06:21:28;;;;;;;12.23;10.93;;;7.40;99.90;;;;;;5031293;28;21047;-54
2023/04/10 06:23:54;;;;;;;19.53;13.07;;;7.70;99.90;;;;;;5031337;28;20968;-54
2023/04/10 06:26:21;;;;;;;17.63;12.77;;;7.70;99.90;;;;;;5022843;28;20547;-53
2023/04/10 06:28:48;;;;;;;15.73;12.67;;;7.60;99.90;;;;;;5034271;28;20907;-50
2023/04/10 06:31:20;;;;;;;13.60;11.07;;;7.60;99.90;;;;;;5040947;28;20490;-52
2023/04/10 06:33:49;;;;;;;14.73;12.07;;;7.70;99.90;;;;;;5028523;28;20466;-53
2023/04/10 06:36:15;;;;;;;18.43;12.10;;;7.70;99.90;;;;;;5029937;28;20489;-54
2023/04/10 06:38:42;;;;;;;17.50;12.07;;;7.80;99.90;;;;;;5030544;28;20494;-53
2023/04/10 06:41:09;;;;;;;14.87;12.03;;;7.80;99.90;;;;;;5015527;28;21119;-53
2023/04/10 06:43:36;;;;;;;20.43;12.60;;;7.90;99.90;;;;;;5023226;28;20470;-53
2023/04/10 06:46:03;;;;;;;14.87;12.47;;;8.00;99.90;;;;;;5025864;28;20495;-54
2023/04/10 06:48:30;;;;;;;22.30;12.90;;;8.00;99.90;;;;;;5028383;28;20855;-53
2023/04/10 06:50:59;;;;;;;18.33;12.80;;;8.10;99.90;;;;;;5038239;22;20495;-62
2023/04/10 06:53:25;;;;;;;19.40;13.47;;;8.40;99.90;;;;;;4993196;28;20456;-59
2023/04/10 06:55:52;;;;;;;18.13;12.53;;;8.40;99.90;;;;;;4985865;28;20484;-59
2023/04/10 06:58:19;;;;;;;21.07;13.83;;;8.50;99.90;;;;;;4990815;28;20447;-59
2023/04/10 07:00:46;;;;;;;15.97;13.40;;;8.60;99.90;;;;;;4991590;28;20482;-58
2023/04/10 07:03:13;;;;;;;19.83;14.13;;;8.70;99.90;;;;;;4992202;28;20479;-63
2023/04/10 07:05:39;;;;;;;22.80;15.33;;;8.70;99.90;;;;;;4992254;28;20461;-58
2023/04/10 07:08:07;;;;;;;18.07;13.83;;;9.00;99.90;;;;;;4992546;28;20522;-58
2023/04/10 07:10:34;;;;;;;21.57;16.30;;;9.10;99.90;;;;;;4985388;28;20469;-58
2023/04/10 07:13:01;;;;;;;21.37;15.03;;;9.30;99.90;;;;;;4987596;28;20465;-58
2023/04/10 07:15:28;;;;;;;19.50;15.77;;;9.30;99.90;;;;;;4992003;28;20483;-61
2023/04/10 07:17:55;;;;;;;23.90;16.80;;;9.40;99.90;;;;;;4986545;28;20503;-59
2023/04/10 07:20:22;;;;;;;21.80;16.63;;;9.40;99.90;;;;;;4988407;28;20873;-59
2023/04/10 07:22:48;;;;;;;21.63;17.50;;;9.40;99.90;;;;;;4988067;28;20463;-60
2023/04/10 07:25:17;;;;;;;23.33;17.50;;;9.50;99.90;;;;;;4990466;28;20463;-59
2023/04/10 07:27:43;;;;;;;27.43;16.70;;;9.50;99.90;;;;;;4987389;28;20468;-55
2023/04/10 07:30:11;;;;;;;23.87;17.70;;;9.90;99.90;;;;;;4989815;28;20470;-58
2023/04/10 07:32:38;;;;;;;26.80;18.80;;;10.20;21.70;;;;;;4993708;28;20503;-59
2023/04/10 07:35:06;;;;;;;27.00;17.63;;;10.40;38.80;;;;;;4991848;28;20468;-58
2023/04/10 07:37:32;;;;;;;19.60;16.00;;;10.60;56.80;;;;;;4996191;28;20488;-58
2023/04/10 07:39:59;;;;;;;19.90;15.17;;;10.80;59.90;;;;;;4994208;28;20470;-48
2023/04/10 07:42:27;;;;;;;21.10;15.93;;;11.00;87.90;;;;;;4990221;28;20562;-49
2023/04/10 07:44:54;;;;;;;20.13;16.13;;;11.20;99.90;;;;;;4990055;28;20519;-48
2023/04/10 07:47:20;;;;;;;22.00;14.87;;;11.60;99.90;;;;;;4987956;28;20468;-48
2023/04/10 07:49:50;;;;;;;21.00;16.10;;;11.90;99.90;;;;;;4994541;28;20519;-48
2023/04/10 07:52:17;;;;;;;21.13;15.53;;;12.20;99.90;;;;;;4991488;28;20548;-49
2023/04/10 07:54:44;;;;;;;24.90;14.80;;;12.40;99.90;;;;;;4990373;28;21006;-49
2023/04/10 07:57:10;;;;;;;24.33;16.97;;;12.50;99.90;;;;;;4993176;28;20491;-48
2023/04/10 07:59:39;;;;;;;26.70;16.57;;;12.50;99.90;;;;;;4989067;28;20504;-48
2023/04/10 08:02:07;;;;;;;25.30;18.37;;;12.60;99.90;;;;;;4992526;28;20571;-48
2023/04/10 08:04:34;;;;;;;29.77;19.50;;;12.60;20.50;;;;;;4991477;28;20464;-48
2023/04/10 08:07:01;;;;;;;22.30;17.50;;;12.70;23.80;;;;;;4993040;28;20464;-49
2023/04/10 08:09:27;;;;;;;24.70;17.37;;;12.90;38.00;;;;;;4988331;28;20462;-48
2023/04/10 08:11:54;;;;;;;25.73;19.47;;;12.90;48.20;;;;;;4990674;28;20523;-49
2023/04/10 08:14:20;;;;;;;29.20;18.80;;;13.00;48.20;;;;;;4992216;28;20967;-48
2023/04/10 08:16:48;;;;;;;28.20;18.70;;;13.50;69.70;;;;;;4992921;28;21105;-51
2023/04/10 08:19:15;;;;;;;24.70;18.13;;;13.60;95.40;;;;;;4992961;28;20486;-50
2023/04/10 08:21:41;;;;;;;26.30;18.20;;;13.50;99.90;;;;;;4993501;28;20529;-50
2023/04/10 08:24:08;;;;;;;30.43;20.07;;;12.70;99.90;;;;;;4991934;28;21042;-50
2023/04/10 08:26:34;;;;;;;22.17;18.07;;;13.10;93.80;;;;;;4985645;28;22143;-50
2023/04/10 08:29:01;;;;;;;24.13;18.20;;;13.40;99.90;;;;;;4987210;28;20468;-50
2023/04/10 08:31:28;;;;;;;23.77;17.50;;;13.70;99.90;;;;;;4994776;28;20513;-50
2023/04/10 08:33:56;;;;;;;23.03;16.57;;;13.50;99.90;;;;;;4986671;28;20472;-50
2023/04/10 08:36:23;;;;;;;25.17;17.43;;;13.70;99.90;;;;;;4963725;28;20595;-51
2023/04/10 08:38:50;;;;;;;21.57;16.40;;;14.20;99.90;;;;;;4979989;28;20522;-50
2023/04/10 08:41:18;;;;;;;23.00;17.60;;;14.30;99.90;;;;;;4980781;28;20517;-50
2023/04/10 08:43:45;;;;;;;20.10;16.80;;;14.40;99.90;;;;;;4987270;28;20464;-50
2023/04/10 08:46:11;;;;;;;22.33;17.40;;;14.60;99.90;;;;;;4992157;28;20477;-51
2023/04/10 08:48:40;;;;;;;21.70;17.20;;;15.20;99.90;;;;;;4992764;28;20819;-50
2023/04/10 08:51:15;;;;;;;22.40;15.80;;;15.40;99.90;;;;;;4986798;28;20835;-51
2023/04/10 08:53:44;;;;;;;20.97;16.00;;;15.60;99.90;;;;;;4991519;28;20945;-51
2023/04/10 08:56:13;;;;;;;20.00;16.90;;;16.40;99.90;;;;;;4987767;28;20508;-50
2023/04/10 08:58:40;;;;;;;17.93;15.10;;;16.30;99.90;;;;;;4989261;28;20468;-50
2023/04/10 09:01:08;;;;;;;17.30;15.00;;;16.90;99.90;;;;;;4988562;28;20524;-51
2023/04/10 09:03:35;;;;;;;21.30;15.43;;;17.70;99.90;;;;;;4990193;28;20471;-50
2023/04/10 09:06:03;;;;;;;17.10;14.37;;;18.20;99.90;;;;;;4985930;28;20498;-50
2023/04/10 09:08:32;;;;;;;20.37;14.57;;;17.90;99.90;;;;;;4987375;28;20463;-52
2023/04/10 09:10:58;;;;;;;17.63;15.10;;;17.60;99.90;;;;;;4994903;28;20502;-50
2023/04/10 09:13:39;;;;;;;24.23;17.07;;;17.20;99.90;;;;;;4989980;28;22272;-50
2023/04/10 09:16:07;;;;;;;17.07;15.23;;;18.30;99.90;;;;;;4987168;28;20503;-51
2023/04/10 09:18:45;;;;;;;16.73;14.10;;;18.20;99.90;;;;;;4985922;28;20956;-51
2023/04/10 09:21:13;;;;;;;23.53;13.60;;;18.40;99.90;;;;;;4989720;28;20511;-51
2023/04/10 09:23:43;;;;;;;14.83;12.70;;;18.10;99.90;;;;;;4992147;28;21030;-52
2023/04/10 09:26:27;;;;;;;17.63;14.90;;;18.00;99.90;;;;;;4987445;28;20492;-51
2023/04/10 09:28:58;;;;;;;14.80;13.03;;;18.30;99.90;;;;;;5003112;28;20561;-51
2023/04/10 09:31:32;;;;;;;16.73;14.30;;;18.00;99.90;;;;;;4994792;28;20545;-51
2023/04/10 09:34:13;;;;;;;19.87;16.40;;;17.80;99.90;;;;;;4988668;28;20974;-50
2023/04/10 09:36:43;;;;;;;21.07;16.10;;;17.70;99.90;;;;;;4991041;28;20483;-50
2023/04/10 09:39:12;;;;;;;19.93;15.70;;;17.80;99.90;;;;;;4990317;28;20463;-51
2023/04/10 09:41:52;;;;;;;18.73;15.63;;;17.40;99.90;;;;;;4984846;28;20535;-51
2023/04/10 09:44:28;;;;;;;17.40;13.87;;;17.90;99.90;;;;;;4988058;28;20479;-51
2023/04/10 09:46:55;;;;;;;24.20;18.27;;;18.20;99.90;;;;;;4994194;28;20841;-51
2023/04/10 09:49:22;;;;;;;23.90;18.17;;;17.60;99.90;;;;;;4987015;28;20994;-50
2023/04/10 09:51:49;;;;;;;17.80;15.60;;;17.30;99.90;;;;;;4986555;28;20858;-51
2023/04/10 09:54:17;;;;;;;23.50;18.60;;;16.70;99.90;;;;;;4983539;28;20471;-50
2023/04/10 09:56:45;;;;;;;23.80;18.27;;;16.80;99.90;;;;;;4984711;28;21039;-50
2023/04/10 09:59:13;;;;;;;24.47;18.67;;;16.50;99.90;;;;;;4987782;28;20477;-50
2023/04/10 10:01:41;;;;;;;22.87;18.63;;;17.60;99.90;;;;;;4987277;28;20914;-50
2023/04/10 10:04:08;;;;;;;30.17;20.63;;;18.40;99.90;;;;;;4990869;28;20468;-50
2023/04/10 10:06:35;;;;;;;23.10;18.17;;;17.90;99.90;;;;;;4986210;28;20463;-50
2023/04/10 10:09:03;;;;;;;22.43;18.50;;;18.80;99.90;;;;;;4990641;28;20465;-50
2023/04/10 10:11:33;;;;;;;23.07;18.00;;;18.90;99.90;;;;;;4991504;28;20484;-50
2023/04/10 10:14:03;;;;;;;25.40;17.43;;;19.20;99.90;;;;;;4980970;28;20960;-51
2023/04/10 10:16:36;;;;;;;18.33;16.43;;;18.50;99.90;;;;;;4991856;28;20491;-51
2023/04/10 10:19:11;;;;;;;19.77;16.77;;;18.90;99.90;;;;;;4982769;28;20500;-49
2023/04/10 10:21:39;;;;;;;22.10;16.90;;;19.10;99.90;;;;;;4988699;28;20527;-50
2023/04/10 10:24:08;;;;;;;21.40;17.30;;;19.20;99.90;;;;;;4989086;28;20457;-51
2023/04/10 10:26:39;;;;;;;25.20;17.50;;;18.40;99.90;;;;;;4988844;28;20456;-51
2023/04/10 10:29:09;;;;;;;24.87;17.73;;;19.00;99.90;;;;;;4990183;28;20524;-51
2023/04/10 10:31:37;;;;;;;23.50;17.37;;;19.90;99.90;;;;;;4989171;28;20925;-51
2023/04/10 10:34:06;;;;;;;28.00;19.07;;;19.70;99.90;;;;;;4987410;28;20457;-50
2023/04/10 10:36:33;;;;;;;24.57;16.90;;;19.90;99.90;;;;;;4989790;28;20492;-51
2023/04/10 10:39:18;;;;;;;16.87;15.07;;;19.00;99.90;;;;;;4992362;28;20531;-51
2023/04/10 10:41:54;;;;;;;21.60;16.30;;;18.90;99.90;;;;;;4992743;28;21064;-51
2023/04/10 10:44:34;;;;;;;22.40;15.60;;;19.00;99.90;;;;;;4991886;28;20496;-50
2023/04/10 10:47:07;;;;;;;20.17;16.30;;;18.20;99.90;;;;;;4993153;28;20449;-54
2023/04/10 10:49:57;;;;;;;23.13;15.30;;;18.20;99.90;;;;;;4993430;28;20468;-51
2023/04/10 10:52:41;;;;;;;17.37;13.83;;;18.30;99.90;;;;;;5009223;28;20478;-50
2023/04/10 10:55:31;;;;;;;20.40;15.27;;;18.60;99.90;;;;;;5008914;28;20452;-50
2023/04/10 10:58:00;;;;;;;16.40;13.43;;;18.10;99.90;;;;;;4993306;28;20481;-51
2023/04/10 11:01:09;;;;;;;16.57;14.60;;;18.60;99.90;;;;;;5001689;28;20483;-50
2023/04/10 11:03:36;;;;;;;21.23;15.23;;;18.80;99.90;;;;;;5004143;28;20469;-50
2023/04/10 11:06:05;;;;;;;19.90;14.47;;;17.80;99.90;;;;;;5008618;28;20819;-52
2023/04/10 11:08:41;;;;;;;16.73;13.30;;;17.70;99.90;;;;;;5007128;28;20464;-55
2023/04/10 11:11:09;;;;;;;21.10;13.50;;;17.90;99.90;;;;;;5025759;28;20467;-51
2023/04/10 11:13:39;;;;;;;16.63;12.93;;;17.70;99.90;;;;;;5017593;28;20455;-52
2023/04/10 11:16:08;;;;;;;15.70;12.83;;;17.20;99.90;;;;;;5015808;28;20458;-50
2023/04/10 11:19:04;;;;;;;14.50;11.77;;;17.30;99.90;;;;;;4993977;28;21009;-50
2023/04/10 11:21:31;;;;;;;13.20;11.40;;;17.70;99.90;;;;;;4990439;28;20487;-50
2023/04/10 11:24:05;;;;;;;15.67;13.17;;;17.40;99.90;;;;;;4992944;28;20463;-50
2023/04/10 11:26:41;;;;;;;17.63;12.73;;;17.80;99.90;;;;;;4991280;28;20868;-50
2023/04/10 11:29:33;;;;;;;16.90;13.30;;;18.40;99.90;;;;;;4991502;28;20488;-50
2023/04/10 11:32:02;;;;;;;17.10;11.40;;;18.00;99.90;;;;;;4985691;28;20563;-50
2023/04/10 11:34:29;;;;;;;13.00;10.70;;;17.90;99.90;;;;;;4988712;28;20483;-51
2023/04/10 11:36:56;;;;;;;15.63;10.07;;;17.70;99.90;;;;;;4995081;28;20558;-50
2023/04/10 11:39:23;;;;;;;13.80;10.63;;;17.70;99.90;;;;;;4993149;28;20504;-51
2023/04/10 11:41:51;;;;;;;12.93;11.10;;;17.50;99.90;;;;;;4990669;28;20519;-50
2023/04/10 11:44:27;;;;;;;17.70;12.57;;;17.50;99.90;;;;;;4993756;28;20476;-51
2023/04/10 11:46:54;;;;;;;14.93;11.60;;;17.40;99.90;;;;;;4992720;28;20972;-51
2023/04/10 11:49:23;;;;;;;16.70;11.77;;;17.60;99.90;;;;;;4990653;28;20459;-51
2023/04/10 11:51:51;;;;;;;16.20;12.07;;;17.70;99.90;;;;;;4993946;28;20489;-50
2023/04/10 11:54:19;;;;;;;12.93;11.27;;;17.60;99.90;;;;;;4994446;28;20448;-50
2023/04/10 11:56:56;;;;;;;17.37;10.57;;;18.40;99.90;;;;;;4988951;28;20551;-51
2023/04/10 11:59:25;;;;;;;13.50;10.07;;;18.30;99.90;;;;;;4994874;28;20469;-51
2023/04/10 12:01:54;;;;;;;11.60;9.13;;;17.80;99.90;;;;;;4994546;28;20468;-50
2023/04/10 12:04:23;;;;;;;13.93;9.23;;;17.90;99.90;;;;;;4992943;28;20494;-51
2023/04/10 12:06:51;;;;;;;10.43;8.93;;;18.10;99.90;;;;;;4991438;28;20447;-51
2023/04/10 12:09:19;;;;;;;13.20;10.20;;;18.10;99.90;;;;;;4991426;28;20468;-51
2023/04/10 12:11:51;;;;;;;13.63;9.40;;;17.60;99.90;;;;;;4988598;28;20480;-50
2023/04/10 12:14:18;;;;;;;8.80;7.90;;;17.90;99.90;;;;;;4989149;28;20480;-49
2023/04/10 12:16:46;;;;;;;10.10;8.70;;;18.40;99.90;;;;;;4987604;28;20556;-52
2023/04/10 12:19:14;;;;;;;10.37;9.20;;;18.70;99.90;;;;;;4992010;28;20563;-51
2023/04/10 12:21:42;;;;;;;11.13;8.73;;;18.90;99.90;;;;;;4993591;28;20484;-51
2023/04/10 12:24:09;;;;;;;10.83;9.10;;;17.90;99.90;;;;;;4992902;28;21012;-52
2023/04/10 12:26:35;;;;;;;11.23;8.20;;;18.50;99.90;;;;;;4991405;28;20522;-50
2023/04/10 12:29:02;;;;;;;14.50;10.20;;;18.90;99.90;;;;;;4990954;28;21402;-51
2023/04/10 12:31:30;;;;;;;13.70;9.47;;;18.40;99.90;;;;;;4992913;28;20488;-51
2023/04/10 12:33:59;;;;;;;8.67;7.80;;;18.60;99.90;;;;;;4990198;28;20464;-51
2023/04/10 12:36:28;;;;;;;10.33;7.77;;;18.40;99.90;;;;;;4993936;28;20465;-50
2023/04/10 12:38:56;;;;;;;14.10;9.13;;;18.60;99.90;;;;;;4992214;28;20578;-51
2023/04/10 12:41:24;;;;;;;11.50;7.73;;;18.90;99.90;;;;;;4992191;28;20918;-51